Time;durP1;ratioP1;P1;durP2;ratioP2;P2;SDS_P1;SDS_P2;PMS_P1;PMS_P2;Temp;Humidity;BMP_temperature;BMP_pressure;BME280_temperature;BME280_humidity;BME280_pressure;Samples;Min_cycle;Max_cycle;Signal;HPM_P1;HPM_P2
2021/03/11 00:00:37;;;;;;;127.38;38.85;;;;;;;;;;8328398;28;20401;-65
2021/03/11 00:04:48;;;;;;;122.68;38.10;;;;;;;;;;8325417;28;20066;-66
2021/03/11 00:08:53;;;;;;;107.60;36.80;;;;;;;;;;8326470;28;20350;-65
2021/03/11 00:12:57;;;;;;;104.22;33.85;;;;;;;;;;8323258;28;20168;-65
2021/03/11 00:17:04;;;;;;;107.93;34.10;;;;;;;;;;8325379;28;20362;-66
2021/03/11 00:21:08;;;;;;;104.45;32.95;;;;;;;;;;8326414;28;20492;-65
2021/03/11 00:25:15;;;;;;;93.35;33.15;;;;;;;;;;8325034;28;20463;-65
2021/03/11 00:29:20;;;;;;;93.10;31.58;;;;;;;;;;8325428;28;20443;-66
2021/03/11 00:33:24;;;;;;;96.22;31.05;;;;;;;;;;8324860;28;20416;-65
2021/03/11 00:37:29;;;;;;;98.25;32.15;;;;;;;;;;8324985;28;20446;-66
2021/03/11 00:41:35;;;;;;;96.07;32.72;;;;;;;;;;8324976;28;20409;-65
2021/03/11 00:45:47;;;;;;;91.00;30.50;;;;;;;;;;8325317;28;20489;-66
2021/03/11 00:49:51;;;;;;;102.32;29.98;;;;;;;;;;8324660;28;20462;-67
2021/03/11 00:53:55;;;;;;;86.80;28.08;;;;;;;;;;8325202;28;20445;-66
2021/03/11 00:58:00;;;;;;;90.75;29.25;;;;;;;;;;8322583;28;20477;-65
2021/03/11 01:02:06;;;;;;;93.78;30.52;;;;;;;;;;8320025;28;20386;-65
2021/03/11 01:06:12;;;;;;;103.78;30.80;;;;;;;;;;8295054;28;20067;-66
2021/03/11 01:10:33;;;;;;;86.68;28.08;;;;;;;;;;8290002;28;20455;-65
2021/03/11 01:14:37;;;;;;;92.47;27.90;;;;;;;;;;8290508;28;20097;-65
2021/03/11 01:18:42;;;;;;;72.82;24.88;;;;;;;;;;8290445;28;20474;-65
2021/03/11 01:22:47;;;;;;;73.07;23.58;;;;;;;;;;8290556;28;20497;-65
2021/03/11 01:26:51;;;;;;;63.90;22.20;;;;;;;;;;8290041;28;20041;-65
2021/03/11 01:31:00;;;;;;;55.60;21.77;;;;;;;;;;8289820;28;20094;-65
2021/03/11 01:35:05;;;;;;;57.97;20.35;;;;;;;;;;8290477;28;20390;-65
2021/03/11 01:39:10;;;;;;;54.20;19.08;;;;;;;;;;8290749;28;20486;-65
2021/03/11 01:43:14;;;;;;;51.78;18.02;;;;;;;;;;8292779;28;20053;-67
2021/03/11 01:47:19;;;;;;;47.47;18.80;;;;;;;;;;8290368;28;20619;-65
2021/03/11 01:51:24;;;;;;;51.38;17.90;;;;;;;;;;8290356;28;20053;-66
2021/03/11 01:55:30;;;;;;;53.70;19.48;;;;;;;;;;8289606;28;20048;-65
2021/03/11 01:59:37;;;;;;;56.47;18.45;;;;;;;;;;8289566;28;20045;-65
2021/03/11 02:03:42;;;;;;;51.33;18.95;;;;;;;;;;8289765;28;20459;-65
2021/03/11 02:07:47;;;;;;;47.50;16.98;;;;;;;;;;8290580;28;20052;-65
2021/03/11 02:12:25;;;;;;;45.38;17.65;;;;;;;;;;8289992;28;20079;-66
2021/03/11 02:16:43;;;;;;;58.22;16.92;;;;;;;;;;8289836;28;20390;-66
2021/03/11 02:21:12;;;;;;;38.78;14.05;;;;;;;;;;8295488;28;20393;-65
2021/03/11 02:25:59;;;;;;;48.25;16.05;;;;;;;;;;8296228;28;20367;-65
2021/03/11 02:30:05;;;;;;;48.83;16.67;;;;;;;;;;8295715;28;20618;-66
2021/03/11 02:34:34;;;;;;;56.70;21.77;;;;;;;;;;8297532;28;20467;-65
2021/03/11 02:38:40;;;;;;;48.55;18.08;;;;;;;;;;8295838;28;20438;-65
2021/03/11 02:42:47;;;;;;;44.30;14.93;;;;;;;;;;8294262;28;20467;-66
2021/03/11 02:46:53;;;;;;;40.13;15.27;;;;;;;;;;8293894;28;20049;-66
2021/03/11 02:51:01;;;;;;;48.25;14.95;;;;;;;;;;8295790;28;20347;-65
2021/03/11 02:55:07;;;;;;;39.85;14.80;;;;;;;;;;8295459;28;20354;-66
2021/03/11 02:59:12;;;;;;;40.67;15.55;;;;;;;;;;8293081;28;20462;-65
2021/03/11 03:03:17;;;;;;;51.17;16.67;;;;;;;;;;8293254;28;20079;-65
2021/03/11 03:07:26;;;;;;;36.47;15.13;;;;;;;;;;8294763;28;20352;-65
2021/03/11 03:11:35;;;;;;;47.40;16.92;;;;;;;;;;8293076;28;20470;-65
2021/03/11 03:15:43;;;;;;;45.45;15.85;;;;;;;;;;8292910;28;20052;-65
2021/03/11 03:19:50;;;;;;;35.13;13.80;;;;;;;;;;8294747;28;20070;-65
2021/03/11 03:24:00;;;;;;;40.28;15.43;;;;;;;;;;8295275;28;20471;-65
2021/03/11 03:28:05;;;;;;;41.83;15.95;;;;;;;;;;8291780;28;20524;-65
2021/03/11 03:32:11;;;;;;;52.28;20.63;;;;;;;;;;8295590;28;20470;-65
2021/03/11 03:36:24;;;;;;;32.65;13.13;;;;;;;;;;8293648;28;20458;-65
2021/03/11 03:40:30;;;;;;;35.08;12.98;;;;;;;;;;8292517;28;20455;-65
2021/03/11 03:44:38;;;;;;;36.50;12.25;;;;;;;;;;8292537;28;20394;-65
2021/03/11 03:48:59;;;;;;;28.20;10.80;;;;;;;;;;8291965;28;20418;-65
2021/03/11 03:53:10;;;;;;;28.35;12.05;;;;;;;;;;8291146;28;20329;-65
2021/03/11 03:57:22;;;;;;;36.50;11.15;;;;;;;;;;8291238;28;20380;-65
2021/03/11 04:01:34;;;;;;;27.40;10.73;;;;;;;;;;8292696;28;20344;-66
2021/03/11 04:05:40;;;;;;;24.05;11.30;;;;;;;;;;8290187;28;20356;-65
2021/03/11 04:09:45;;;;;;;30.20;12.40;;;;;;;;;;8295123;28;20455;-66
2021/03/11 04:13:51;;;;;;;30.95;11.88;;;;;;;;;;8291407;28;20052;-65
2021/03/11 04:17:57;;;;;;;47.30;13.50;;;;;;;;;;8290985;28;20465;-65
2021/03/11 04:22:03;;;;;;;40.25;12.73;;;;;;;;;;8290834;28;20060;-65
2021/03/11 04:26:11;;;;;;;28.98;12.77;;;;;;;;;;8293787;28;20420;-65
2021/03/11 04:30:16;;;;;;;28.20;11.63;;;;;;;;;;8290670;28;20414;-65
2021/03/11 04:34:21;;;;;;;25.00;10.95;;;;;;;;;;8290636;28;20451;-65
2021/03/11 04:38:26;;;;;;;28.90;11.40;;;;;;;;;;8291839;28;20498;-65
2021/03/11 04:42:40;;;;;;;33.03;11.68;;;;;;;;;;8289087;28;20399;-67
2021/03/11 04:46:48;;;;;;;25.77;10.93;;;;;;;;;;8288439;28;20381;-66
2021/03/11 04:50:56;;;;;;;24.92;10.75;;;;;;;;;;8289506;28;20374;-65
2021/03/11 04:55:05;;;;;;;27.83;11.00;;;;;;;;;;8290583;28;20118;-65
2021/03/11 04:59:11;;;;;;;30.77;12.70;;;;;;;;;;8291291;28;20355;-65
2021/03/11 05:03:16;;;;;;;33.40;12.27;;;;;;;;;;8291051;28;20344;-65
2021/03/11 05:07:21;;;;;;;30.67;12.82;;;;;;;;;;8292772;28;20071;-65
2021/03/11 05:11:25;;;;;;;28.95;13.20;;;;;;;;;;8291983;28;20359;-65
2021/03/11 05:15:29;;;;;;;38.53;15.18;;;;;;;;;;8291541;28;20375;-66
2021/03/11 05:19:34;;;;;;;143.25;42.95;;;;;;;;;;8290805;28;20057;-65
2021/03/11 05:23:39;;;;;;;81.40;34.17;;;;;;;;;;8290182;28;20483;-67
2021/03/11 05:27:43;;;;;;;40.00;15.70;;;;;;;;;;8293056;28;20477;-65
2021/03/11 05:31:47;;;;;;;60.78;21.63;;;;;;;;;;8290408;28;20364;-65
2021/03/11 05:35:52;;;;;;;43.10;19.30;;;;;;;;;;8289590;28;20364;-65
2021/03/11 05:39:57;;;;;;;41.53;17.10;;;;;;;;;;8290392;28;20075;-65
2021/03/11 05:44:02;;;;;;;47.22;19.63;;;;;;;;;;8291831;28;20384;-66
2021/03/11 05:48:08;;;;;;;66.90;29.05;;;;;;;;;;8291996;28;20313;-65
2021/03/11 05:52:14;;;;;;;57.70;22.83;;;;;;;;;;8291285;28;20048;-66
2021/03/11 05:56:19;;;;;;;58.95;23.80;;;;;;;;;;8299534;28;20439;-66
2021/03/11 06:00:23;;;;;;;42.60;18.38;;;;;;;;;;8297231;28;20074;-66
2021/03/11 06:04:30;;;;;;;49.38;18.08;;;;;;;;;;8299255;28;20412;-66
2021/03/11 06:08:36;;;;;;;36.65;14.25;;;;;;;;;;8296529;28;20459;-67
2021/03/11 06:12:45;;;;;;;36.35;13.73;;;;;;;;;;8294620;28;20351;-66
2021/03/11 06:17:03;;;;;;;25.70;11.45;;;;;;;;;;8296507;28;20367;-66
2021/03/11 06:21:08;;;;;;;;;;;;;;;;;;8295321;28;20371;-65
2021/03/11 06:25:14;;;;;;;26.58;9.95;;;;;;;;;;8295899;28;20266;-66
2021/03/11 06:29:40;;;;;;;23.83;10.75;;;;;;;;;;8295528;28;20072;-67
2021/03/11 06:33:44;;;;;;;27.50;10.15;;;;;;;;;;8296712;28;20371;-67
2021/03/11 06:37:49;;;;;;;24.88;10.25;;;;;;;;;;8296471;28;20115;-67
2021/03/11 06:41:53;;;;;;;21.30;9.77;;;;;;;;;;8295496;28;20390;-69
2021/03/11 06:46:07;;;;;;;26.23;10.30;;;;;;;;;;8295388;28;20378;-68
2021/03/11 06:50:13;;;;;;;19.77;9.48;;;;;;;;;;8294064;28;20443;-68
2021/03/11 06:54:17;;;;;;;23.83;10.85;;;;;;;;;;8295446;28;20359;-68
2021/03/11 06:58:24;;;;;;;20.95;10.82;;;;;;;;;;8296183;28;20448;-68
2021/03/11 07:02:29;;;;;;;25.80;11.65;;;;;;;;;;8297701;28;20067;-68
2021/03/11 07:06:36;;;;;;;27.35;11.85;;;;;;;;;;8295165;28;20474;-68
2021/03/11 07:10:47;;;;;;;26.48;12.10;;;;;;;;;;8297328;28;20444;-69
2021/03/11 07:14:51;;;;;;;23.60;10.65;;;;;;;;;;8297342;28;20471;-69
2021/03/11 07:19:13;;;;;;;26.95;12.05;;;;;;;;;;8295907;28;20475;-71
2021/03/11 07:23:20;;;;;;;33.75;12.40;;;;;;;;;;8294599;28;20052;-70
2021/03/11 07:27:24;;;;;;;27.45;11.52;;;;;;;;;;8295508;28;20052;-69
2021/03/11 07:31:32;;;;;;;24.05;11.60;;;;;;;;;;8295737;28;20456;-69
2021/03/11 07:35:36;;;;;;;27.52;11.82;;;;;;;;;;8295222;28;20496;-70
2021/03/11 07:39:44;;;;;;;25.80;11.55;;;;;;;;;;8294321;28;20462;-71
2021/03/11 07:43:48;;;;;;;22.20;9.90;;;;;;;;;;8293114;28;20370;-71
2021/03/11 07:47:53;;;;;;;26.42;12.68;;;;;;;;;;8307871;28;20394;-70
2021/03/11 07:51:59;;;;;;;31.45;12.00;;;;;;;;;;8294508;28;20365;-70
2021/03/11 07:56:04;;;;;;;37.80;15.55;;;;;;;;;;8293925;28;20468;-71
2021/03/11 08:00:29;;;;;;;31.23;13.13;;;;;;;;;;8292496;28;20441;-70
2021/03/11 08:04:35;;;;;;;27.85;13.77;;;;;;;;;;8294621;28;20455;-71
2021/03/11 08:08:42;;;;;;;24.00;11.68;;;;;;;;;;8291923;28;20422;-70
2021/03/11 08:12:47;;;;;;;26.38;11.68;;;;;;;;;;8291476;28;20470;-70
2021/03/11 08:16:53;;;;;;;24.70;10.68;;;;;;;;;;8291028;28;20477;-71
2021/03/11 08:20:58;;;;;;;20.88;10.10;;;;;;;;;;8293097;28;20462;-71
2021/03/11 08:25:06;;;;;;;22.67;10.30;;;;;;;;;;8297294;28;20075;-71
2021/03/11 08:29:20;;;;;;;19.95;9.75;;;;;;;;;;8294400;28;20405;-71
2021/03/11 08:33:26;;;;;;;22.45;9.63;;;;;;;;;;8293294;28;20071;-70
2021/03/11 08:37:31;;;;;;;30.15;12.25;;;;;;;;;;8292317;28;20455;-71
2021/03/11 08:41:36;;;;;;;19.67;9.57;;;;;;;;;;8293392;28;20057;-70
2021/03/11 08:45:41;;;;;;;19.40;9.30;;;;;;;;;;8291955;28;20052;-72
2021/03/11 08:49:45;;;;;;;20.98;9.15;;;;;;;;;;8293416;28;20342;-70
2021/03/11 08:53:51;;;;;;;20.17;9.52;;;;;;;;;;8291635;28;20401;-70
2021/03/11 08:57:57;;;;;;;20.42;8.85;;;;;;;;;;8306384;28;20378;-70
2021/03/11 09:02:02;;;;;;;20.15;9.65;;;;;;;;;;8306142;28;20056;-70
2021/03/11 09:06:07;;;;;;;22.55;10.43;;;;;;;;;;8306725;28;20056;-69
2021/03/11 09:10:19;;;;;;;23.15;9.65;;;;;;;;;;8291044;28;20397;-70
2021/03/11 09:14:25;;;;;;;26.05;10.77;;;;;;;;;;8290643;28;20056;-70
2021/03/11 09:18:30;;;;;;;17.98;9.93;;;;;;;;;;8290789;28;20399;-70
2021/03/11 09:22:40;;;;;;;24.60;10.63;;;;;;;;;;8293412;28;20049;-69
2021/03/11 09:26:45;;;;;;;18.20;10.70;;;;;;;;;;8291534;28;20370;-69
2021/03/11 09:30:50;;;;;;;18.80;9.23;;;;;;;;;;8293115;28;20496;-69
2021/03/11 09:35:11;;;;;;;23.48;11.98;;;;;;;;;;8290942;28;20470;-70
2021/03/11 09:39:15;;;;;;;22.65;11.73;;;;;;;;;;8289393;28;20444;-70
2021/03/11 09:43:29;;;;;;;20.42;11.65;;;;;;;;;;8289605;28;20386;-70
2021/03/11 09:47:33;;;;;;;23.00;11.70;;;;;;;;;;8291714;28;20459;-70
2021/03/11 09:51:38;;;;;;;24.38;12.25;;;;;;;;;;8291838;28;20385;-69
2021/03/11 09:55:43;;;;;;;25.63;12.30;;;;;;;;;;8291436;28;20374;-70
2021/03/11 09:59:48;;;;;;;24.15;12.65;;;;;;;;;;8289835;28;20458;-69
2021/03/11 10:03:53;;;;;;;27.35;11.85;;;;;;;;;;8291656;28;20379;-69
2021/03/11 10:07:58;;;;;;;20.67;11.00;;;;;;;;;;8288998;28;20467;-69
2021/03/11 10:12:03;;;;;;;21.27;11.35;;;;;;;;;;8290097;28;20479;-70
2021/03/11 10:16:09;;;;;;;27.92;12.23;;;;;;;;;;8289146;28;20382;-71
2021/03/11 10:20:29;;;;;;;28.30;11.90;;;;;;;;;;8290100;28;20057;-70
2021/03/11 10:24:48;;;;;;;23.55;11.48;;;;;;;;;;8289547;28;20482;-69
2021/03/11 10:29:05;;;;;;;22.42;12.13;;;;;;;;;;8289936;28;20474;-70
2021/03/11 10:33:16;;;;;;;28.50;13.05;;;;;;;;;;8289085;28;20478;-70
2021/03/11 10:37:32;;;;;;;33.75;13.95;;;;;;;;;;8289454;28;20497;-70
2021/03/11 10:42:00;;;;;;;27.00;12.43;;;;;;;;;;8293784;28;20075;-69
2021/03/11 10:46:04;;;;;;;27.15;12.93;;;;;;;;;;8296928;28;20071;-70
2021/03/11 10:50:20;;;;;;;26.90;12.95;;;;;;;;;;8296594;28;20087;-70
2021/03/11 10:54:31;;;;;;;27.08;12.38;;;;;;;;;;8295875;28;20505;-70
2021/03/11 10:58:37;;;;;;;27.98;14.05;;;;;;;;;;8295783;28;20052;-70
2021/03/11 11:02:44;;;;;;;26.33;13.23;;;;;;;;;;8295398;28;20372;-70
2021/03/11 11:06:49;;;;;;;33.50;13.75;;;;;;;;;;8293542;28;20503;-70
2021/03/11 11:10:53;;;;;;;36.80;14.35;;;;;;;;;;8298346;28;20371;-70
2021/03/11 11:14:58;;;;;;;29.95;14.55;;;;;;;;;;8297189;28;20484;-69
2021/03/11 11:19:03;;;;;;;34.35;14.00;;;;;;;;;;8296612;28;20379;-70
2021/03/11 11:23:07;;;;;;;28.58;12.98;;;;;;;;;;8294823;28;20455;-70
2021/03/11 11:27:13;;;;;;;27.48;12.90;;;;;;;;;;8295743;28;20048;-71
2021/03/11 11:31:17;;;;;;;30.90;13.13;;;;;;;;;;8294790;28;20460;-70
2021/03/11 11:35:23;;;;;;;22.60;11.80;;;;;;;;;;8294906;28;20450;-69
2021/03/11 11:39:27;;;;;;;30.98;12.30;;;;;;;;;;8295358;28;20045;-69
2021/03/11 11:43:32;;;;;;;28.85;13.45;;;;;;;;;;8295358;28;20462;-70
2021/03/11 11:47:38;;;;;;;24.98;13.20;;;;;;;;;;8293751;28;20082;-69
2021/03/11 11:51:43;;;;;;;26.50;12.80;;;;;;;;;;8291606;28;20048;-69
2021/03/11 11:55:47;;;;;;;30.67;13.88;;;;;;;;;;8294449;28;20057;-69
2021/03/11 11:59:52;;;;;;;23.55;12.00;;;;;;;;;;8294265;28;20477;-69
2021/03/11 12:03:56;;;;;;;31.05;13.00;;;;;;;;;;8293321;28;20487;-69
2021/03/11 12:08:01;;;;;;;39.67;14.02;;;;;;;;;;8292410;28;20497;-71
2021/03/11 12:12:11;;;;;;;30.42;14.23;;;;;;;;;;8292454;28;20678;-71
2021/03/11 12:16:14;;;;;;;26.52;13.45;;;;;;;;;;8291491;28;20378;-70
2021/03/11 12:20:19;;;;;;;28.80;14.45;;;;;;;;;;8293570;28;20045;-69
2021/03/11 12:24:24;;;;;;;34.72;12.52;;;;;;;;;;8295134;28;20352;-69
2021/03/11 12:28:28;;;;;;;24.63;10.80;;;;;;;;;;8291373;28;20082;-69
2021/03/11 12:32:32;;;;;;;25.27;11.15;;;;;;;;;;8292337;28;20380;-70
2021/03/11 12:36:37;;;;;;;22.40;9.73;;;;;;;;;;8291309;28;20442;-70
2021/03/11 12:40:43;;;;;;;28.48;11.77;;;;;;;;;;8292344;28;20488;-70
2021/03/11 12:44:47;;;;;;;20.77;8.32;;;;;;;;;;8290145;28;20486;-70
2021/03/11 12:48:52;;;;;;;16.60;8.20;;;;;;;;;;8292538;28;20398;-69
2021/03/11 12:52:57;;;;;;;17.00;8.52;;;;;;;;;;8305806;28;20424;-69
2021/03/11 12:57:01;;;;;;;14.05;7.75;;;;;;;;;;8292603;28;20078;-69
2021/03/11 13:01:05;;;;;;;15.55;7.70;;;;;;;;;;8292033;28;20475;-70
2021/03/11 13:05:10;;;;;;;13.68;6.25;;;;;;;;;;8292842;28;20653;-70
2021/03/11 13:09:26;;;;;;;14.65;7.90;;;;;;;;;;8386165;27;20873;-69
2021/03/11 13:13:30;;;;;;;15.80;7.63;;;;;;;;;;8352606;28;20378;-69
2021/03/11 13:17:35;;;;;;;24.98;8.82;;;;;;;;;;8352875;28;20362;-69
2021/03/11 13:21:40;;;;;;;32.45;10.38;;;;;;;;;;8334786;28;20082;-69
2021/03/11 13:25:45;;;;;;;19.13;8.68;;;;;;;;;;8352727;28;20409;-69
2021/03/11 13:29:49;;;;;;;26.73;11.18;;;;;;;;;;8351592;28;20047;-69
2021/03/11 13:33:54;;;;;;;19.60;9.93;;;;;;;;;;8354983;28;20363;-69
2021/03/11 13:37:59;;;;;;;19.42;9.43;;;;;;;;;;8353280;28;20369;-69
2021/03/11 13:42:04;;;;;;;23.17;9.77;;;;;;;;;;8351644;28;20055;-70
2021/03/11 13:46:08;;;;;;;28.35;12.45;;;;;;;;;;8333989;28;20347;-70
2021/03/11 13:50:14;;;;;;;26.05;12.93;;;;;;;;;;8352076;28;20480;-69
2021/03/11 13:54:18;;;;;;;26.33;11.38;;;;;;;;;;8353134;28;20473;-71
2021/03/11 13:58:22;;;;;;;30.80;13.55;;;;;;;;;;8352340;28;20392;-70
2021/03/11 14:02:28;;;;;;;26.60;12.55;;;;;;;;;;8351043;28;20043;-69
2021/03/11 14:06:32;;;;;;;26.15;10.85;;;;;;;;;;8351200;28;20078;-69
2021/03/11 14:10:37;;;;;;;16.08;8.48;;;;;;;;;;8351971;28;20107;-72
2021/03/11 14:14:41;;;;;;;22.40;9.05;;;;;;;;;;8334328;28;20355;-70
2021/03/11 14:18:46;;;;;;;15.88;8.10;;;;;;;;;;8339874;28;20455;-69
2021/03/11 14:22:51;;;;;;;19.98;11.32;;;;;;;;;;8328597;28;20382;-70
2021/03/11 14:26:56;;;;;;;13.50;8.35;;;;;;;;;;8295312;28;20505;-69
2021/03/11 14:31:00;;;;;;;16.60;8.32;;;;;;;;;;8310361;28;20070;-69
2021/03/11 14:35:08;;;;;;;13.07;8.15;;;;;;;;;;8310784;28;20362;-69
2021/03/11 14:39:13;;;;;;;12.88;7.90;;;;;;;;;;8326662;28;20355;-69
2021/03/11 14:43:18;;;;;;;15.38;7.97;;;;;;;;;;8327959;28;20374;-69
2021/03/11 14:47:22;;;;;;;14.18;8.65;;;;;;;;;;8326217;28;20504;-69
2021/03/11 14:51:28;;;;;;;14.77;7.65;;;;;;;;;;8325903;28;20379;-69
2021/03/11 15:06:46;;;;;;;14.00;8.88;;;;;;;;;;8297232;27;928766;-69
2021/03/11 15:11:00;;;;;;;18.02;8.70;;;;;;;;;;8371671;27;754272;-69
2021/03/11 15:15:05;;;;;;;16.60;9.00;;;;;;;;;;8345809;28;20385;-68
2021/03/11 15:19:10;;;;;;;12.68;8.10;;;;;;;;;;8363021;28;20389;-69
2021/03/11 15:23:15;;;;;;;30.63;14.60;;;;;;;;;;8363558;28;20477;-69
2021/03/11 15:27:21;;;;;;;30.15;18.42;;;;;;;;;;8344612;28;20377;-70
2021/03/11 15:31:26;;;;;;;17.17;9.50;;;;;;;;;;8362591;28;20442;-69
2021/03/11 15:35:32;;;;;;;19.60;10.85;;;;;;;;;;8362761;28;20450;-69
2021/03/11 15:39:39;;;;;;;89.70;55.88;;;;;;;;;;8362281;28;20480;-71
2021/03/11 15:43:44;;;;;;;67.38;36.97;;;;;;;;;;8344200;28;20394;-69
2021/03/11 15:47:49;;;;;;;239.02;67.93;;;;;;;;;;8362268;28;20095;-70
2021/03/11 15:51:54;;;;;;;32.72;15.57;;;;;;;;;;8344284;28;20066;-70
2021/03/11 15:56:00;;;;;;;28.83;13.13;;;;;;;;;;8342634;28;20066;-70
2021/03/11 16:00:08;;;;;;;65.07;41.15;;;;;;;;;;8361032;28;20070;-70
2021/03/11 16:04:15;;;;;;;107.10;35.85;;;;;;;;;;8345453;28;20453;-72
2021/03/11 16:08:20;;;;;;;105.97;32.15;;;;;;;;;;8342446;28;20369;-72
2021/03/11 16:12:24;;;;;;;51.08;18.77;;;;;;;;;;8342293;28;20471;-71
2021/03/11 16:16:29;;;;;;;49.08;20.27;;;;;;;;;;8379105;28;20052;-69
2021/03/11 16:20:34;;;;;;;54.38;28.98;;;;;;;;;;8371425;28;20358;-69
2021/03/11 16:24:40;;;;;;;508.17;148.10;;;;;;;;;;8342736;28;20504;-69
2021/03/11 16:28:44;;;;;;;111.35;32.97;;;;;;;;;;8361791;28;20472;-71
2021/03/11 16:32:49;;;;;;;281.27;62.00;;;;;;;;;;8360947;28;20048;-70
2021/03/11 16:36:54;;;;;;;172.02;58.42;;;;;;;;;;8361295;28;20462;-71
2021/03/11 16:40:59;;;;;;;298.10;104.32;;;;;;;;;;8327764;28;20396;-70
2021/03/11 16:45:07;;;;;;;91.18;34.38;;;;;;;;;;8343734;28;20462;-70
2021/03/11 16:49:13;;;;;;;161.73;36.53;;;;;;;;;;8362449;28;20409;-70
2021/03/11 16:53:17;;;;;;;49.55;18.35;;;;;;;;;;8360345;28;20065;-69
2021/03/11 16:57:22;;;;;;;107.28;27.90;;;;;;;;;;8359566;28;20350;-70
2021/03/11 17:01:26;;;;;;;485.25;200.02;;;;;;;;;;8342743;28;20044;-70
2021/03/11 17:05:31;;;;;;;706.45;286.73;;;;;;;;;;8342024;28;20466;-69
2021/03/11 17:09:35;;;;;;;159.75;52.00;;;;;;;;;;8297020;28;20340;-71
2021/03/11 17:13:40;;;;;;;181.50;44.53;;;;;;;;;;8274800;28;20375;-70
2021/03/11 17:17:45;;;;;;;293.30;79.28;;;;;;;;;;8292065;28;20466;-70
2021/03/11 17:21:50;;;;;;;173.43;51.60;;;;;;;;;;8291273;28;20364;-69
2021/03/11 17:25:55;;;;;;;137.52;45.33;;;;;;;;;;8293147;28;20444;-70
2021/03/11 17:30:00;;;;;;;243.50;108.20;;;;;;;;;;8291999;28;20491;-69
2021/03/11 17:34:06;;;;;;;305.13;121.78;;;;;;;;;;8291811;28;20651;-70
2021/03/11 17:38:15;;;;;;;246.18;59.47;;;;;;;;;;8293073;28;20079;-70
2021/03/11 17:42:20;;;;;;;139.63;41.38;;;;;;;;;;8294684;28;20354;-71
2021/03/11 17:46:24;;;;;;;104.15;36.70;;;;;;;;;;8294088;28;20463;-69
2021/03/11 17:50:28;;;;;;;100.53;36.00;;;;;;;;;;8293271;28;20340;-71
2021/03/11 17:54:33;;;;;;;51.35;22.58;;;;;;;;;;8291491;28;20455;-70
2021/03/11 17:58:38;;;;;;;59.25;29.33;;;;;;;;;;8292540;28;20486;-70
2021/03/11 18:02:42;;;;;;;132.52;53.47;;;;;;;;;;8292545;28;20075;-70
2021/03/11 18:07:07;;;;;;;70.45;26.05;;;;;;;;;;8292093;28;20052;-71
2021/03/11 18:11:12;;;;;;;66.15;25.40;;;;;;;;;;8321777;28;20079;-69
2021/03/11 18:15:17;;;;;;;45.22;20.08;;;;;;;;;;8324252;28;20458;-71
2021/03/11 18:19:21;;;;;;;48.63;22.13;;;;;;;;;;8306397;28;20409;-70
2021/03/11 18:23:28;;;;;;;40.13;19.27;;;;;;;;;;8322876;28;20474;-69
2021/03/11 18:27:33;;;;;;;40.80;20.88;;;;;;;;;;8305834;28;20462;-70
2021/03/11 18:31:43;;;;;;;79.72;38.88;;;;;;;;;;8323114;28;20474;-70
2021/03/11 18:35:47;;;;;;;35.63;16.73;;;;;;;;;;8324999;28;20367;-70
2021/03/11 18:39:52;;;;;;;38.45;20.65;;;;;;;;;;8326347;28;20371;-70
2021/03/11 18:43:57;;;;;;;34.08;16.52;;;;;;;;;;8322806;28;20460;-71
2021/03/11 18:48:01;;;;;;;34.75;17.65;;;;;;;;;;8323228;28;20362;-70
2021/03/11 18:52:07;;;;;;;34.53;16.60;;;;;;;;;;8321410;28;20498;-71
2021/03/11 18:56:11;;;;;;;36.58;16.88;;;;;;;;;;8324347;28;20423;-70
2021/03/11 19:00:31;;;;;;;33.75;16.42;;;;;;;;;;8322506;28;20052;-70
2021/03/11 19:04:38;;;;;;;31.58;15.27;;;;;;;;;;8323599;28;20461;-70
2021/03/11 19:08:44;;;;;;;33.95;15.75;;;;;;;;;;8321956;28;20475;-71
2021/03/11 19:12:49;;;;;;;141.25;39.80;;;;;;;;;;8321710;28;20056;-70
2021/03/11 19:16:55;;;;;;;32.50;15.25;;;;;;;;;;8325470;28;20450;-71
2021/03/11 19:21:00;;;;;;;44.00;19.13;;;;;;;;;;8304832;28;20390;-70
2021/03/11 19:25:05;;;;;;;176.98;42.83;;;;;;;;;;8323573;28;20439;-70
2021/03/11 19:29:10;;;;;;;47.22;19.55;;;;;;;;;;8304669;28;20062;-71
2021/03/11 19:33:14;;;;;;;42.65;17.95;;;;;;;;;;8304345;28;20056;-70
2021/03/11 19:37:18;;;;;;;28.42;14.55;;;;;;;;;;8324246;28;20044;-70
2021/03/11 19:41:23;;;;;;;97.78;30.27;;;;;;;;;;8322934;28;20392;-70
2021/03/11 19:45:30;;;;;;;326.05;76.32;;;;;;;;;;8323261;28;20501;-70
2021/03/11 19:49:34;;;;;;;249.68;63.97;;;;;;;;;;8321700;28;20497;-70
2021/03/11 19:53:39;;;;;;;152.93;46.17;;;;;;;;;;8321428;28;20447;-70
2021/03/11 19:57:45;;;;;;;408.48;100.30;;;;;;;;;;8328934;28;20624;-71
2021/03/11 20:01:50;;;;;;;193.45;57.50;;;;;;;;;;8330155;28;20052;-71
2021/03/11 20:05:55;;;;;;;71.60;29.02;;;;;;;;;;8313090;28;20469;-71
2021/03/11 20:10:17;;;;;;;89.15;30.63;;;;;;;;;;8328039;28;20409;-71
2021/03/11 20:14:23;;;;;;;47.17;19.90;;;;;;;;;;8311526;28;20411;-70
2021/03/11 20:18:28;;;;;;;35.25;17.33;;;;;;;;;;8327739;28;20459;-70
2021/03/11 20:22:33;;;;;;;35.03;15.70;;;;;;;;;;8328503;28;20504;-71
2021/03/11 20:26:39;;;;;;;24.52;12.50;;;;;;;;;;8310067;28;20450;-70
2021/03/11 20:30:44;;;;;;;27.58;13.85;;;;;;;;;;8310385;28;20467;-70
2021/03/11 20:34:48;;;;;;;29.88;14.43;;;;;;;;;;8326685;28;20465;-70
2021/03/11 20:38:53;;;;;;;117.10;31.30;;;;;;;;;;8325215;28;20466;-70
2021/03/11 20:43:08;;;;;;;101.53;28.60;;;;;;;;;;8327459;28;20383;-70
2021/03/11 20:47:13;;;;;;;110.45;31.02;;;;;;;;;;8293608;28;20471;-69
2021/03/11 20:51:21;;;;;;;93.53;26.98;;;;;;;;;;8326435;28;20458;-70
2021/03/11 20:55:27;;;;;;;95.45;33.28;;;;;;;;;;8326614;28;20351;-69
2021/03/11 20:59:34;;;;;;;100.80;35.20;;;;;;;;;;8327752;28;20496;-69
2021/03/11 21:03:39;;;;;;;129.38;38.50;;;;;;;;;;8327642;28;20056;-70
2021/03/11 21:07:47;;;;;;;117.85;38.63;;;;;;;;;;8327197;28;20434;-69
2021/03/11 21:11:53;;;;;;;94.03;37.15;;;;;;;;;;8308372;28;20374;-69
2021/03/11 21:15:58;;;;;;;107.43;36.15;;;;;;;;;;8308150;28;20052;-69
2021/03/11 21:20:06;;;;;;;114.60;41.35;;;;;;;;;;8324757;28;20055;-69
2021/03/11 21:24:10;;;;;;;154.57;47.22;;;;;;;;;;8307942;28;20052;-70
2021/03/11 21:28:15;;;;;;;151.77;50.10;;;;;;;;;;8327794;28;20640;-68
2021/03/11 21:32:20;;;;;;;156.20;48.97;;;;;;;;;;8327150;28;20161;-71
2021/03/11 21:36:24;;;;;;;133.02;45.03;;;;;;;;;;8324712;28;20490;-72
2021/03/11 21:40:35;;;;;;;306.23;77.65;;;;;;;;;;8324007;28;20450;-69
2021/03/11 21:44:39;;;;;;;198.93;59.60;;;;;;;;;;8307570;28;20056;-70
2021/03/11 21:48:45;;;;;;;96.10;33.22;;;;;;;;;;8324293;28;20568;-71
2021/03/11 21:52:53;;;;;;;118.60;38.38;;;;;;;;;;8322902;28;20360;-71
2021/03/11 21:56:58;;;;;;;135.18;43.97;;;;;;;;;;8306927;28;20062;-71
2021/03/11 22:01:07;;;;;;;102.70;38.20;;;;;;;;;;8324429;28;20377;-71
2021/03/11 22:05:14;;;;;;;91.22;37.72;;;;;;;;;;8307659;28;20469;-72
2021/03/11 22:09:18;;;;;;;183.10;54.33;;;;;;;;;;8290472;28;20524;-71
2021/03/11 22:13:23;;;;;;;162.30;51.15;;;;;;;;;;8307531;28;20346;-71
2021/03/11 22:17:28;;;;;;;134.10;44.08;;;;;;;;;;8323774;28;20363;-71
2021/03/11 22:21:32;;;;;;;140.02;42.05;;;;;;;;;;8326383;28;20435;-71
2021/03/11 22:25:38;;;;;;;96.65;32.72;;;;;;;;;;8322822;28;20343;-71
2021/03/11 22:29:45;;;;;;;77.88;28.00;;;;;;;;;;8324974;28;20370;-71
2021/03/11 22:33:49;;;;;;;135.45;45.03;;;;;;;;;;8323399;28;20455;-72
2021/03/11 22:37:54;;;;;;;101.35;39.00;;;;;;;;;;8323114;28;20377;-72
2021/03/11 22:42:12;;;;;;;108.60;36.63;;;;;;;;;;8324322;28;20056;-72
2021/03/11 22:46:17;;;;;;;82.95;32.55;;;;;;;;;;8305312;28;20439;-71
2021/03/11 22:50:23;;;;;;;92.00;34.17;;;;;;;;;;8323938;28;20493;-73
2021/03/11 22:54:28;;;;;;;80.53;32.60;;;;;;;;;;8303836;28;20478;-72
2021/03/11 22:58:36;;;;;;;88.07;32.20;;;;;;;;;;8322541;28;20332;-73
2021/03/11 23:02:47;;;;;;;114.00;37.63;;;;;;;;;;8324711;28;20487;-73
2021/03/11 23:06:54;;;;;;;90.30;31.90;;;;;;;;;;8307946;28;20520;-74
2021/03/11 23:11:12;;;;;;;89.28;31.73;;;;;;;;;;8323486;28;20627;-74
2021/03/11 23:15:18;;;;;;;82.25;30.77;;;;;;;;;;8306208;28;20048;-74
2021/03/11 23:19:26;;;;;;;258.70;62.50;;;;;;;;;;8323886;28;20078;-74
2021/03/11 23:23:35;;;;;;;77.32;30.35;;;;;;;;;;8323651;28;20455;-74
2021/03/11 23:27:41;;;;;;;74.78;26.48;;;;;;;;;;8306147;28;20051;-74
2021/03/11 23:31:46;;;;;;;46.70;18.63;;;;;;;;;;8310630;28;20405;-73
2021/03/11 23:35:53;;;;;;;51.50;20.77;;;;;;;;;;8329428;28;20363;-74
2021/03/11 23:40:01;;;;;;;81.95;28.25;;;;;;;;;;8329691;28;20074;-73
2021/03/11 23:44:07;;;;;;;101.15;28.65;;;;;;;;;;8312235;28;20056;-74
2021/03/11 23:48:13;;;;;;;81.38;26.17;;;;;;;;;;8311988;28;20070;-74
2021/03/11 23:52:21;;;;;;;;;;;;;;;;;;8295376;28;20363;-74
2021/03/11 23:56:25;;;;;;;83.95;26.05;;;;;;;;;;8312434;28;20238;-74
